Time;durP1;ratioP1;P1;durP2;ratioP2;P2;SDS_P1;SDS_P2;PMS_P1;PMS_P2;Temp;Humidity;BMP_temperature;BMP_pressure;BME280_temperature;BME280_humidity;BME280_pressure;Samples;Min_cycle;Max_cycle;Signal;HPM_P1;HPM_P2
2022/10/21 00:00:42;;;;;;;1999.90;999.90;;;12.40;99.90;;;;;;5050153;28;20950;-68
2022/10/21 00:03:09;;;;;;;1999.90;999.90;;;12.50;99.90;;;;;;5049554;28;20854;-68
2022/10/21 00:05:36;;;;;;;1999.90;999.90;;;12.40;99.90;;;;;;5047576;28;20559;-67
2022/10/21 00:08:02;;;;;;;1999.90;999.90;;;12.50;99.90;;;;;;5045915;28;20459;-68
2022/10/21 00:10:29;;;;;;;1999.90;999.90;;;12.50;99.90;;;;;;5049079;28;20478;-68
2022/10/21 00:12:56;;;;;;;1999.90;999.90;;;12.50;99.90;;;;;;5048874;28;21005;-67
2022/10/21 00:15:23;;;;;;;1999.90;999.90;;;12.40;99.90;;;;;;5046320;28;21041;-67
2022/10/21 00:17:51;;;;;;;1999.90;999.90;;;12.50;99.90;;;;;;5049797;28;20469;-68
2022/10/21 00:20:18;;;;;;;1999.90;999.90;;;12.50;99.90;;;;;;5048253;28;20466;-68
2022/10/21 00:22:44;;;;;;;1999.90;999.90;;;12.70;99.90;;;;;;5046320;28;20473;-68
2022/10/21 00:25:11;;;;;;;1999.90;999.90;;;12.60;99.90;;;;;;5047606;28;20501;-68
2022/10/21 00:27:38;;;;;;;1999.90;999.90;;;12.60;99.90;;;;;;5048014;28;20454;-68
2022/10/21 00:30:07;;;;;;;1999.90;999.90;;;12.50;99.90;;;;;;5046781;28;20989;-67
2022/10/21 00:32:34;;;;;;;1999.90;999.90;;;12.50;99.90;;;;;;5049617;28;20473;-67
2022/10/21 00:35:02;;;;;;;1999.90;999.90;;;12.40;99.90;;;;;;5048298;28;20990;-68
2022/10/21 00:37:29;;;;;;;1999.90;999.90;;;12.40;99.90;;;;;;5047789;28;20993;-68
2022/10/21 00:39:56;;;;;;;1999.90;999.90;;;12.30;99.90;;;;;;5047193;28;20459;-68
2022/10/21 00:42:28;;;;;;;1999.90;999.90;;;12.40;99.90;;;;;;5044393;28;20459;-67
2022/10/21 00:45:11;;;;;;;1999.90;999.90;;;12.40;99.90;;;;;;5047467;28;20493;-67
2022/10/21 00:47:44;;;;;;;1999.90;999.90;;;12.40;99.90;;;;;;5050536;28;20457;-68
2022/10/21 00:50:21;;;;;;;1999.90;999.90;;;12.30;99.90;;;;;;5045646;28;20469;-68
2022/10/21 00:52:48;;;;;;;1999.90;999.90;;;12.30;99.90;;;;;;5047474;28;20993;-68
2022/10/21 00:55:15;;;;;;;1999.90;999.90;;;12.30;99.90;;;;;;5046784;28;20485;-67
2022/10/21 00:57:42;;;;;;;1999.90;999.90;;;12.30;99.90;;;;;;5046209;28;20497;-67
2022/10/21 01:00:09;;;;;;;1999.90;999.90;;;12.30;99.90;;;;;;5047345;28;20473;-67
2022/10/21 01:02:36;;;;;;;1999.90;999.90;;;12.50;99.90;;;;;;5048068;28;20473;-67
2022/10/21 01:05:05;;;;;;;1999.90;999.90;;;12.60;99.90;;;;;;5047021;28;20494;-67
2022/10/21 01:07:33;;;;;;;1999.90;999.90;;;12.60;99.90;;;;;;5047731;28;20458;-68
2022/10/21 01:10:00;;;;;;;1999.90;999.90;;;12.50;99.90;;;;;;5048662;28;20817;-67
2022/10/21 01:12:42;;;;;;;1999.90;999.90;;;12.40;99.90;;;;;;5047076;28;20494;-67
2022/10/21 01:15:16;;;;;;;1999.90;999.90;;;12.40;99.90;;;;;;5044522;28;20489;-67
2022/10/21 01:17:51;;;;;;;1999.90;999.90;;;12.40;99.90;;;;;;5045469;28;20456;-67
2022/10/21 01:20:56;;;;;;;1999.90;999.90;;;12.60;99.90;;;;;;5046648;28;20469;-67
2022/10/21 01:24:03;;;;;;;1999.90;999.90;;;12.50;99.90;;;;;;5032526;28;20500;-67
2022/10/21 01:27:14;;;;;;;1999.90;999.90;;;12.50;99.90;;;;;;5045356;28;20458;-67
2022/10/21 01:30:12;;;;;;;1999.90;999.90;;;12.60;99.90;;;;;;5040385;28;20450;-67
2022/10/21 01:33:07;;;;;;;1999.90;999.90;;;12.80;99.90;;;;;;5028191;28;21117;-67
2022/10/21 01:35:43;;;;;;;1999.90;999.90;;;12.70;99.90;;;;;;5047173;28;20482;-67
2022/10/21 01:38:16;;;;;;;1999.90;999.90;;;12.60;99.90;;;;;;5044717;28;20450;-67
2022/10/21 01:40:51;;;;;;;1999.90;999.90;;;12.50;99.90;;;;;;5045206;28;20845;-67
2022/10/21 01:43:26;;;;;;;1999.90;999.90;;;12.50;99.90;;;;;;5046175;28;20469;-67
2022/10/21 01:45:57;;;;;;;1999.90;999.90;;;12.50;99.90;;;;;;5041631;28;20486;-67
2022/10/21 01:48:32;;;;;;;1999.90;999.90;;;12.40;99.90;;;;;;5046583;28;20454;-67
2022/10/21 01:51:02;;;;;;;1999.90;999.90;;;12.50;99.90;;;;;;5042943;28;20469;-66
2022/10/21 01:53:33;;;;;;;1999.90;999.90;;;12.40;99.90;;;;;;5045866;28;20466;-67
2022/10/21 01:56:03;;;;;;;1999.90;999.90;;;12.40;99.90;;;;;;5047316;28;20493;-67
2022/10/21 01:58:34;;;;;;;1999.90;999.90;;;12.40;99.90;;;;;;5045220;28;20477;-68
2022/10/21 02:01:03;;;;;;;1999.90;999.90;;;12.50;99.90;;;;;;5045087;28;20990;-67
2022/10/21 02:03:35;;;;;;;1999.90;999.90;;;12.70;99.90;;;;;;5047380;28;20482;-69
2022/10/21 02:06:02;;;;;;;1999.90;999.90;;;12.70;99.90;;;;;;5040932;28;20494;-67
2022/10/21 02:08:29;;;;;;;1999.90;999.90;;;12.70;99.90;;;;;;5046471;28;20478;-67
2022/10/21 02:10:58;;;;;;;1999.90;999.90;;;12.80;99.90;;;;;;5047035;28;20486;-68
2022/10/21 02:13:29;;;;;;;1999.90;999.90;;;12.80;99.90;;;;;;5043420;28;20462;-68
2022/10/21 02:16:00;;;;;;;1999.90;999.90;;;12.70;99.90;;;;;;5043302;28;20993;-68
2022/10/21 02:18:28;;;;;;;1999.90;999.90;;;12.60;99.90;;;;;;5046321;28;20462;-68
2022/10/21 02:21:01;;;;;;;1999.90;999.90;;;12.60;99.90;;;;;;5046211;28;20462;-68
2022/10/21 02:23:38;;;;;;;1999.90;999.90;;;12.60;99.90;;;;;;5046653;28;20470;-68
2022/10/21 02:26:05;;;;;;;1999.90;999.90;;;12.60;99.90;;;;;;5043667;28;20490;-68
2022/10/21 02:28:33;;;;;;;1999.90;999.90;;;12.60;99.90;;;;;;5046158;28;20470;-67
2022/10/21 02:31:10;;;;;;;1999.90;999.90;;;12.70;99.90;;;;;;5045838;28;20481;-67
2022/10/21 02:33:47;;;;;;;1999.90;999.90;;;12.70;99.90;;;;;;5047398;28;20469;-67
2022/10/21 02:36:22;;;;;;;1999.90;999.90;;;12.70;99.90;;;;;;5045682;28;20860;-67
2022/10/21 02:38:55;;;;;;;1999.90;999.90;;;12.80;99.90;;;;;;5042534;28;20465;-68
2022/10/21 02:41:24;;;;;;;1999.90;999.90;;;12.80;99.90;;;;;;5046259;28;20462;-68
2022/10/21 02:43:56;;;;;;;1999.90;999.90;;;12.90;99.90;;;;;;5043876;28;20469;-67
2022/10/21 02:46:23;;;;;;;1999.90;999.90;;;12.90;99.90;;;;;;5045373;28;20837;-67
2022/10/21 02:48:50;;;;;;;1999.90;999.90;;;13.00;99.90;;;;;;5046789;28;20483;-68
2022/10/21 02:51:18;;;;;;;1999.90;999.90;;;13.00;99.90;;;;;;5049315;28;21049;-67
2022/10/21 02:53:45;;;;;;;1999.90;999.90;;;12.90;99.90;;;;;;5050746;28;20474;-68
2022/10/21 02:56:11;;;;;;;1999.90;999.90;;;12.90;99.90;;;;;;5049802;28;20481;-67
2022/10/21 02:58:38;;;;;;;1999.90;999.90;;;12.90;99.90;;;;;;5048943;28;20453;-67
2022/10/21 03:01:05;;;;;;;1999.90;999.90;;;13.00;99.90;;;;;;5050631;28;20826;-68
2022/10/21 03:03:32;;;;;;;1999.90;999.90;;;12.90;99.90;;;;;;5048149;28;20469;-68
2022/10/21 03:05:58;;;;;;;1999.90;999.90;;;12.90;99.90;;;;;;5050303;28;20473;-68
2022/10/21 03:08:26;;;;;;;1999.90;999.90;;;12.80;99.90;;;;;;5049344;28;20458;-67
2022/10/21 03:10:53;;;;;;;1999.90;999.90;;;12.90;99.90;;;;;;5047966;28;20458;-68
2022/10/21 03:13:21;;;;;;;1999.90;999.90;;;13.00;99.90;;;;;;5048453;28;20496;-67
2022/10/21 03:15:48;;;;;;;1999.90;999.90;;;12.90;99.90;;;;;;5050290;28;20489;-68
2022/10/21 03:18:15;;;;;;;1999.90;999.90;;;13.10;99.90;;;;;;5049406;28;20672;-67
2022/10/21 03:20:42;;;;;;;1999.90;999.90;;;13.40;99.90;;;;;;5050023;28;20926;-68
2022/10/21 03:23:09;;;;;;;1999.90;999.90;;;13.60;99.90;;;;;;5047311;28;20457;-67
2022/10/21 03:25:37;;;;;;;1999.90;999.90;;;13.90;99.90;;;;;;5048478;28;20498;-67
2022/10/21 03:28:04;;;;;;;1999.90;999.90;;;14.30;99.90;;;;;;5050017;28;20454;-68
2022/10/21 03:30:30;;;;;;;1999.90;999.90;;;14.60;99.90;;;;;;5046457;28;20958;-67
2022/10/21 03:32:57;;;;;;;1999.90;999.90;;;14.70;99.90;;;;;;5049928;28;20482;-68
2022/10/21 03:35:24;;;;;;;1999.90;999.90;;;14.60;99.90;;;;;;5047868;28;20509;-68
2022/10/21 03:37:50;;;;;;;1999.90;999.90;;;14.70;99.90;;;;;;5046595;28;20814;-68
2022/10/21 03:40:17;;;;;;;1999.90;999.90;;;14.70;99.90;;;;;;5049073;28;20458;-67
2022/10/21 03:42:45;;;;;;;1999.90;999.90;;;14.60;99.90;;;;;;5046934;28;20454;-67
2022/10/21 03:45:12;;;;;;;1999.90;999.90;;;14.50;99.90;;;;;;5049166;28;21076;-67
2022/10/21 03:47:39;;;;;;;1999.90;999.90;;;14.50;99.90;;;;;;5048700;28;20463;-68
2022/10/21 03:50:07;;;;;;;1999.90;999.90;;;14.30;99.90;;;;;;5047101;28;20458;-67
2022/10/21 03:52:33;;;;;;;1999.90;999.90;;;14.30;99.90;;;;;;5046224;28;20518;-68
2022/10/21 03:55:00;;;;;;;1999.90;999.90;;;14.30;99.90;;;;;;5045747;28;20485;-69
2022/10/21 03:57:27;;;;;;;1999.90;999.90;;;14.40;99.90;;;;;;5044922;28;20477;-68
2022/10/21 03:59:55;;;;;;;1999.90;999.90;;;14.10;99.90;;;;;;5049623;28;20466;-68
2022/10/21 04:02:22;;;;;;;1999.90;999.90;;;14.10;99.90;;;;;;5047532;28;20481;-67
2022/10/21 04:04:48;;;;;;;1999.90;999.90;;;14.00;99.90;;;;;;5047992;28;20474;-68
2022/10/21 04:07:15;;;;;;;1999.90;999.90;;;14.10;99.90;;;;;;5050801;28;20461;-67
2022/10/21 04:09:42;;;;;;;1999.90;999.90;;;14.10;99.90;;;;;;5050769;28;20465;-68
2022/10/21 04:12:09;;;;;;;1999.90;999.90;;;14.20;99.90;;;;;;5051611;28;20485;-67
2022/10/21 04:14:35;;;;;;;1999.90;999.90;;;14.10;99.90;;;;;;5048096;28;20491;-67
2022/10/21 04:17:04;;;;;;;1999.90;999.90;;;14.20;99.90;;;;;;5045049;28;20458;-67
2022/10/21 04:19:30;;;;;;;1999.90;999.90;;;14.30;99.90;;;;;;5049645;28;20473;-68
2022/10/21 04:21:57;;;;;;;1999.90;999.90;;;14.50;99.90;;;;;;5049421;28;20466;-68
2022/10/21 04:24:24;;;;;;;1999.90;999.90;;;14.50;99.90;;;;;;5049373;28;20478;-67
2022/10/21 04:26:50;;;;;;;1999.90;999.90;;;14.50;99.90;;;;;;5047852;28;20458;-67
2022/10/21 04:29:17;;;;;;;1999.90;999.90;;;14.50;99.90;;;;;;5050791;28;20466;-67
2022/10/21 04:31:44;;;;;;;1999.90;999.90;;;14.60;99.90;;;;;;5047568;28;20862;-67
2022/10/21 04:34:13;;;;;;;1999.90;999.90;;;14.60;99.90;;;;;;5050979;28;20485;-68
2022/10/21 04:36:40;;;;;;;1999.90;999.90;;;14.60;99.90;;;;;;5049473;28;20470;-67
2022/10/21 04:39:07;;;;;;;1999.90;999.90;;;14.60;99.90;;;;;;5047488;28;20966;-68
2022/10/21 04:41:34;;;;;;;1999.90;999.90;;;14.60;99.90;;;;;;5049102;28;20458;-68
2022/10/21 04:44:01;;;;;;;1999.90;999.90;;;14.60;99.90;;;;;;5047432;28;20465;-67
2022/10/21 04:46:28;;;;;;;1999.90;999.90;;;14.60;99.90;;;;;;5065797;22;20504;-68
2022/10/21 04:48:55;;;;;;;1999.90;999.90;;;14.60;99.90;;;;;;5051754;28;20981;-68
2022/10/21 04:51:23;;;;;;;1999.90;999.90;;;14.60;99.90;;;;;;5050764;28;20465;-69
2022/10/21 04:53:50;;;;;;;1999.90;999.90;;;14.60;99.90;;;;;;5054098;28;20476;-69
2022/10/21 04:56:17;;;;;;;1999.90;999.90;;;14.40;99.90;;;;;;5057394;28;20500;-69
2022/10/21 04:58:44;;;;;;;1999.90;999.90;;;14.40;99.90;;;;;;5047844;28;20466;-70
2022/10/21 05:01:11;;;;;;;1999.90;999.90;;;14.40;99.90;;;;;;5054383;28;20958;-68
2022/10/21 05:03:37;;;;;;;1999.90;999.90;;;14.40;99.90;;;;;;5053777;28;21544;-69
2022/10/21 05:06:04;;;;;;;1999.90;999.90;;;14.30;99.90;;;;;;5059574;28;20487;-69
2022/10/21 05:08:32;;;;;;;1999.90;999.90;;;14.30;99.90;;;;;;5048798;28;20466;-68
2022/10/21 05:11:01;;;;;;;1999.90;999.90;;;14.30;99.90;;;;;;5052099;28;20454;-69
2022/10/21 05:13:28;;;;;;;1999.90;999.90;;;14.30;99.90;;;;;;5052221;28;20488;-69
2022/10/21 05:15:57;;;;;;;1999.90;999.90;;;14.30;99.90;;;;;;5055661;28;20485;-67
2022/10/21 05:18:24;;;;;;;1999.90;999.90;;;14.30;99.90;;;;;;5051528;28;20469;-69
2022/10/21 05:20:52;;;;;;;1999.90;999.90;;;14.20;99.90;;;;;;5052965;28;20458;-69
2022/10/21 05:23:19;;;;;;;1999.90;999.90;;;14.40;99.90;;;;;;5058966;28;20454;-70
2022/10/21 05:25:49;;;;;;;1999.90;999.90;;;14.20;99.90;;;;;;5047043;28;20488;-71
2022/10/21 05:28:16;;;;;;;1999.90;999.90;;;14.20;99.90;;;;;;5052531;28;20464;-72
2022/10/21 05:30:43;;;;;;;1999.90;999.90;;;14.20;99.90;;;;;;5054027;28;20824;-70
2022/10/21 05:33:10;;;;;;;1999.90;999.90;;;14.10;99.90;;;;;;5054996;28;20474;-69
2022/10/21 05:35:37;;;;;;;1999.90;999.90;;;14.10;99.90;;;;;;5043355;28;20870;-68
2022/10/21 05:38:04;;;;;;;1999.90;999.90;;;14.00;99.90;;;;;;5036529;28;20851;-69
2022/10/21 05:40:31;;;;;;;1999.90;999.90;;;13.90;99.90;;;;;;5044513;28;20817;-69
2022/10/21 05:43:00;;;;;;;1999.90;999.90;;;13.80;99.90;;;;;;5031750;28;20494;-68
2022/10/21 05:45:26;;;;;;;1999.90;999.90;;;13.80;99.90;;;;;;5032652;28;20628;-69
2022/10/21 05:47:53;;;;;;;1999.90;999.90;;;13.80;99.90;;;;;;5036288;28;20996;-71
2022/10/21 05:50:20;;;;;;;1999.90;999.90;;;13.80;99.90;;;;;;5052256;28;20453;-69
2022/10/21 05:52:47;;;;;;;1999.90;999.90;;;13.90;99.90;;;;;;5052904;28;20482;-70
2022/10/21 05:55:14;;;;;;;1999.90;999.90;;;13.90;99.90;;;;;;5056096;28;20465;-72
2022/10/21 05:57:40;;;;;;;1999.90;999.90;;;14.10;99.90;;;;;;5054295;28;21023;-71
2022/10/21 06:00:10;;;;;;;1999.90;999.90;;;14.20;99.90;;;;;;5049154;28;20969;-68
2022/10/21 06:02:37;;;;;;;1999.90;999.90;;;14.20;99.90;;;;;;5052224;28;20465;-68
2022/10/21 06:05:04;;;;;;;1999.90;999.90;;;14.30;99.90;;;;;;5055759;28;20468;-67
2022/10/21 06:07:31;;;;;;;1999.90;999.90;;;14.20;99.90;;;;;;5055893;28;20473;-69
2022/10/21 06:09:58;;;;;;;1999.90;999.90;;;14.30;99.90;;;;;;5049003;28;20469;-68
2022/10/21 06:12:25;;;;;;;1999.90;999.90;;;14.30;99.90;;;;;;5049908;28;20475;-68
2022/10/21 06:14:51;;;;;;;1999.90;999.90;;;14.30;99.90;;;;;;5043993;28;20442;-67
2022/10/21 06:17:19;;;;;;;1999.90;999.90;;;14.40;99.90;;;;;;5046861;28;21040;-68
2022/10/21 06:19:47;;;;;;;1999.90;999.90;;;14.50;99.90;;;;;;5040792;28;21006;-67
2022/10/21 06:22:14;;;;;;;1999.90;999.90;;;14.70;99.90;;;;;;5049631;28;20468;-70
2022/10/21 06:24:40;;;;;;;1999.90;999.90;;;14.80;99.90;;;;;;5054297;28;20458;-71
2022/10/21 06:27:07;;;;;;;1999.90;999.90;;;14.70;99.90;;;;;;5055593;28;20477;-71
2022/10/21 06:29:34;;;;;;;1999.90;999.90;;;14.70;99.90;;;;;;5057662;28;20465;-67
2022/10/21 06:32:01;;;;;;;1999.90;999.90;;;15.10;99.90;;;;;;5053584;28;20962;-68
2022/10/21 06:34:29;;;;;;;1999.90;999.90;;;14.80;99.90;;;;;;5055677;28;20446;-69
2022/10/21 06:36:56;;;;;;;1999.90;999.90;;;14.80;99.90;;;;;;5055542;28;20470;-71
2022/10/21 06:39:23;;;;;;;1999.90;999.90;;;15.00;99.90;;;;;;5056147;28;20449;-69
2022/10/21 06:41:49;;;;;;;1999.90;999.90;;;15.10;99.90;;;;;;5054470;28;20473;-69
2022/10/21 06:44:16;;;;;;;1999.90;999.90;;;15.20;99.90;;;;;;5049948;28;20466;-70
2022/10/21 06:46:43;;;;;;;1999.90;999.90;;;15.10;99.90;;;;;;5046776;28;20493;-69
2022/10/21 06:49:10;;;;;;;1999.90;999.90;;;15.20;99.90;;;;;;5059207;28;20465;-67
2022/10/21 06:51:38;;;;;;;1999.90;999.90;;;15.40;99.90;;;;;;5053418;28;20458;-69
2022/10/21 06:54:05;;;;;;;1999.90;999.90;;;15.50;99.90;;;;;;5049153;28;20486;-71
2022/10/21 06:56:32;;;;;;;1999.90;999.90;;;15.70;99.90;;;;;;5058231;28;20478;-70
2022/10/21 06:58:59;;;;;;;1999.90;999.90;;;15.70;99.90;;;;;;5055373;28;20446;-69
2022/10/21 07:01:27;;;;;;;1999.90;999.90;;;15.70;99.90;;;;;;5054610;28;20633;-69
2022/10/21 07:03:54;;;;;;;1999.90;999.90;;;15.70;99.90;;;;;;5054553;28;20830;-68
2022/10/21 07:06:21;;;;;;;1999.90;999.90;;;15.60;99.90;;;;;;5055001;28;20470;-67
2022/10/21 07:08:49;;;;;;;1999.90;999.90;;;15.70;99.90;;;;;;5054988;28;20469;-68
2022/10/21 07:11:16;;;;;;;1999.90;999.90;;;15.90;99.90;;;;;;5053878;28;20450;-68
2022/10/21 07:13:43;;;;;;;1999.90;999.90;;;15.80;99.90;;;;;;5054342;28;20584;-68
2022/10/21 07:16:17;;;;;;;1999.90;999.90;;;15.90;99.90;;;;;;5054075;28;20462;-68
2022/10/21 07:18:44;;;;;;;1999.90;999.90;;;15.90;99.90;;;;;;5054983;28;20458;-68
2022/10/21 07:21:14;;;;;;;1999.90;999.90;;;16.00;99.90;;;;;;5053797;28;20442;-68
2022/10/21 07:23:40;;;;;;;1999.90;999.90;;;16.00;99.90;;;;;;5049154;28;20960;-69
2022/10/21 07:26:08;;;;;;;1999.90;999.90;;;16.00;99.90;;;;;;5054423;28;20837;-68
2022/10/21 07:28:36;;;;;;;1999.90;999.90;;;16.10;99.90;;;;;;5054395;28;20442;-68
2022/10/21 07:31:04;;;;;;;1999.90;999.90;;;16.10;99.90;;;;;;5054453;28;20437;-68
2022/10/21 07:33:31;;;;;;;1999.90;999.90;;;16.20;99.90;;;;;;5052949;28;20485;-67
2022/10/21 07:36:03;;;;;;;1999.90;999.90;;;16.40;99.90;;;;;;5053025;28;20852;-66
2022/10/21 07:38:30;;;;;;;1999.90;999.90;;;16.60;99.90;;;;;;5054215;28;20447;-68
2022/10/21 07:40:58;;;;;;;1999.90;999.90;;;16.90;99.90;;;;;;5054304;28;20451;-68
2022/10/21 07:43:26;;;;;;;1999.90;999.90;;;17.00;99.90;;;;;;5052690;28;20459;-68
2022/10/21 07:45:53;;;;;;;1999.90;999.90;;;17.10;99.90;;;;;;5053580;28;20470;-67
2022/10/21 07:48:22;;;;;;;1999.90;999.90;;;17.50;99.90;;;;;;5054161;28;20446;-69
2022/10/21 07:50:49;;;;;;;1999.90;999.90;;;17.70;99.90;;;;;;5054108;28;20442;-68
2022/10/21 07:53:16;;;;;;;1999.90;999.90;;;18.00;99.90;;;;;;5053217;28;20482;-69
2022/10/21 07:55:42;;;;;;;1999.90;999.90;;;18.10;99.90;;;;;;5053441;28;20466;-67
2022/10/21 07:58:09;;;;;;;1999.90;999.90;;;18.00;99.90;;;;;;5054132;28;20446;-68
2022/10/21 08:00:37;;;;;;;1999.90;999.90;;;18.00;99.90;;;;;;5053786;28;20934;-69
2022/10/21 08:03:04;;;;;;;1999.90;999.90;;;18.00;99.90;;;;;;5052601;28;20947;-68
2022/10/21 08:05:30;;;;;;;1999.90;999.90;;;18.00;99.90;;;;;;5053080;28;20453;-68
2022/10/21 08:07:58;;;;;;;1999.90;999.90;;;18.00;99.90;;;;;;5053931;28;20462;-68
2022/10/21 08:10:24;;;;;;;1999.90;999.90;;;18.20;99.90;;;;;;5053741;28;20454;-68
2022/10/21 08:12:51;;;;;;;1999.90;999.90;;;18.40;99.90;;;;;;5052021;28;20549;-69
2022/10/21 08:15:18;;;;;;;1999.90;999.90;;;18.70;99.90;;;;;;5051336;28;21004;-67
2022/10/21 08:17:46;;;;;;;1999.90;999.90;;;19.00;99.90;;;;;;5053200;28;20454;-69
2022/10/21 08:20:13;;;;;;;1999.90;999.90;;;19.30;99.90;;;;;;5053462;28;20973;-68
2022/10/21 08:22:39;;;;;;;1999.90;999.90;;;19.80;99.90;;;;;;5053839;28;20446;-69
2022/10/21 08:25:07;;;;;;;1999.90;999.90;;;19.80;99.90;;;;;;5052441;28;20471;-67
2022/10/21 08:27:34;;;;;;;1999.90;999.90;;;20.20;99.90;;;;;;5053176;28;20462;-69
2022/10/21 08:30:01;;;;;;;1999.90;999.90;;;20.70;99.90;;;;;;5056679;28;20456;-68
2022/10/21 08:32:27;;;;;;;1999.90;999.90;;;20.40;99.90;;;;;;5073082;28;20622;-68
2022/10/21 08:34:55;;;;;;;1999.90;999.90;;;20.20;99.90;;;;;;5063465;28;20462;-69
2022/10/21 08:37:22;;;;;;;1999.90;999.90;;;19.90;99.90;;;;;;5053179;28;20470;-69
2022/10/21 08:39:49;;;;;;;1999.90;999.90;;;20.00;99.90;;;;;;5053248;28;20446;-68
2022/10/21 08:42:17;;;;;;;1999.90;999.90;;;20.00;99.90;;;;;;5053088;28;20461;-69
2022/10/21 08:44:53;;;;;;;1999.90;999.90;;;20.00;99.90;;;;;;5051014;28;20977;-68
2022/10/21 08:47:31;;;;;;;1999.90;999.90;;;20.20;99.90;;;;;;5051744;28;20482;-69
2022/10/21 08:50:06;;;;;;;1999.90;999.90;;;20.00;99.90;;;;;;5051849;28;20454;-68
2022/10/21 08:52:41;;;;;;;1999.90;999.90;;;19.80;99.90;;;;;;5052693;28;20969;-69
2022/10/21 08:55:15;;;;;;;1999.90;999.90;;;20.00;99.90;;;;;;5051606;28;21092;-68
2022/10/21 08:57:42;;;;;;;1999.90;999.90;;;20.20;99.90;;;;;;5052644;28;20480;-68
2022/10/21 09:00:17;;;;;;;1999.90;999.90;;;20.30;99.90;;;;;;5052694;28;20458;-69
2022/10/21 09:03:01;;;;;;;1999.90;999.90;;;20.60;99.90;;;;;;5052502;28;20425;-69
2022/10/21 09:06:03;;;;;;;1999.90;999.90;;;20.70;99.90;;;;;;5051282;28;20834;-68
2022/10/21 09:08:38;;;;;;;1999.90;999.90;;;20.70;99.90;;;;;;5027482;28;20446;-68
2022/10/21 09:11:18;;;;;;;1999.90;999.90;;;20.70;99.90;;;;;;5052802;28;20442;-68
2022/10/21 09:13:57;;;;;;;1999.90;999.90;;;20.70;99.90;;;;;;5052444;28;20577;-68
2022/10/21 09:16:33;;;;;;;1999.90;999.90;;;20.70;99.90;;;;;;5048288;28;20482;-68
2022/10/21 09:19:11;;;;;;;1999.90;999.90;;;20.70;99.90;;;;;;5051359;28;20458;-67
2022/10/21 09:21:51;;;;;;;1999.90;999.90;;;20.60;99.90;;;;;;5032183;28;20432;-68
2022/10/21 09:24:24;;;;;;;1999.90;999.90;;;20.60;99.90;;;;;;5031126;28;20428;-66
2022/10/21 09:26:52;;;;;;;1999.90;999.90;;;20.50;99.90;;;;;;5049682;28;20864;-69
2022/10/21 09:29:28;;;;;;;1999.90;999.90;;;20.20;99.90;;;;;;5050046;28;20977;-66
2022/10/21 09:31:59;;;;;;;1999.90;999.90;;;20.20;99.90;;;;;;5042168;28;20980;-68
2022/10/21 09:34:38;;;;;;;1999.90;999.90;;;20.20;99.90;;;;;;5043490;28;20494;-69
2022/10/21 09:37:14;;;;;;;1999.90;999.90;;;20.40;99.90;;;;;;5051974;28;20466;-68
2022/10/21 09:39:46;;;;;;;1999.90;999.90;;;20.40;99.90;;;;;;5050904;28;20434;-69
2022/10/21 09:42:13;;;;;;;1999.90;999.90;;;20.20;99.90;;;;;;5041319;28;20489;-68
2022/10/21 09:44:40;;;;;;;1999.90;999.90;;;20.00;99.90;;;;;;5050445;28;20974;-68
2022/10/21 09:47:19;;;;;;;1999.90;999.90;;;20.00;99.90;;;;;;5050169;28;20477;-67
2022/10/21 09:49:48;;;;;;;1999.90;999.90;;;20.00;99.90;;;;;;5050320;28;20446;-69
2022/10/21 09:52:18;;;;;;;1999.90;999.90;;;19.80;99.90;;;;;;5049426;28;20454;-69
2022/10/21 09:54:46;;;;;;;1999.90;999.90;;;19.60;99.90;;;;;;5045154;28;20560;-68
2022/10/21 09:57:15;;;;;;;1999.90;999.90;;;19.60;99.90;;;;;;5051203;28;20462;-68
2022/10/21 09:59:56;;;;;;;1999.90;999.90;;;19.70;99.90;;;;;;5051247;28;20836;-68
2022/10/21 10:02:30;;;;;;;1999.90;999.90;;;19.50;99.90;;;;;;5046961;28;20469;-68
2022/10/21 10:04:57;;;;;;;1999.90;999.90;;;19.50;99.90;;;;;;5051438;28;20443;-67
2022/10/21 10:07:33;;;;;;;1999.90;999.90;;;19.60;99.90;;;;;;5051378;28;20851;-68
2022/10/21 10:10:00;;;;;;;1999.90;999.90;;;19.70;99.90;;;;;;5033192;28;20791;-66
2022/10/21 10:12:29;;;;;;;1999.90;999.90;;;19.50;99.90;;;;;;5049831;28;20469;-68
2022/10/21 10:14:56;;;;;;;1999.90;999.90;;;19.50;99.90;;;;;;5050920;28;20474;-67
2022/10/21 10:17:29;;;;;;;1999.90;999.90;;;19.80;99.90;;;;;;5051553;28;20844;-69
2022/10/21 10:20:16;;;;;;;1999.90;999.90;;;19.60;99.90;;;;;;5051825;28;20459;-68
2022/10/21 10:22:46;;;;;;;1999.90;999.90;;;19.70;99.90;;;;;;5045568;28;20445;-68
2022/10/21 10:25:24;;;;;;;1999.90;999.90;;;19.80;99.90;;;;;;5051443;28;20526;-69
2022/10/21 10:27:53;;;;;;;1999.90;999.90;;;19.70;99.90;;;;;;5051679;28;20434;-68
2022/10/21 10:30:21;;;;;;;1999.90;999.90;;;19.60;99.90;;;;;;5051329;28;20442;-68
2022/10/21 10:32:49;;;;;;;1999.90;999.90;;;19.50;99.90;;;;;;5057004;28;20476;-69
2022/10/21 10:35:24;;;;;;;1999.90;999.90;;;19.60;99.90;;;;;;5049974;28;20482;-65
2022/10/21 10:37:53;;;;;;;1999.90;999.90;;;19.70;99.90;;;;;;5049397;28;20433;-68
2022/10/21 10:40:23;;;;;;;1999.90;999.90;;;19.70;99.90;;;;;;5047043;28;20872;-67
2022/10/21 10:42:52;;;;;;;1999.90;999.90;;;19.60;99.90;;;;;;5047420;28;20513;-68
2022/10/21 10:45:22;;;;;;;1999.90;999.90;;;19.60;99.90;;;;;;5045712;28;20854;-67
2022/10/21 10:47:53;;;;;;;1999.90;999.90;;;19.50;99.90;;;;;;5071595;22;20458;-69
2022/10/21 10:50:46;;;;;;;1999.90;999.90;;;19.30;99.90;;;;;;5049937;28;21210;-69
2022/10/21 10:53:25;;;;;;;1999.90;999.90;;;19.20;99.90;;;;;;5050811;28;20465;-68
2022/10/21 10:55:58;;;;;;;1999.90;999.90;;;19.10;99.90;;;;;;5053278;28;20473;-68
2022/10/21 10:58:27;;;;;;;1999.90;999.90;;;19.20;99.90;;;;;;5046409;28;20482;-69
2022/10/21 11:00:59;;;;;;;1999.90;999.90;;;19.30;99.90;;;;;;5051725;28;20975;-69
2022/10/21 11:03:31;;;;;;;1999.90;999.90;;;19.40;99.90;;;;;;5045741;28;20461;-68
2022/10/21 11:06:07;;;;;;;1999.90;999.90;;;19.30;99.90;;;;;;5049192;28;20454;-68
2022/10/21 11:08:41;;;;;;;1999.90;999.90;;;19.40;99.90;;;;;;5048603;28;21008;-68
2022/10/21 11:11:15;;;;;;;1999.90;999.90;;;19.40;99.90;;;;;;5048487;28;20461;-68
2022/10/21 11:13:42;;;;;;;1999.90;999.90;;;19.40;99.90;;;;;;5052968;28;20977;-68
2022/10/21 11:16:24;;;;;;;1999.90;999.90;;;19.40;99.90;;;;;;5056293;28;20468;-68
2022/10/21 11:18:59;;;;;;;1999.90;999.90;;;19.40;99.90;;;;;;5051303;28;20478;-68
2022/10/21 11:21:44;;;;;;;1999.90;999.90;;;19.40;99.90;;;;;;5051797;28;20836;-68
2022/10/21 11:24:36;;;;;;;1999.90;999.90;;;19.50;99.90;;;;;;5051241;28;20813;-68
2022/10/21 11:27:10;;;;;;;1999.90;999.90;;;19.60;99.90;;;;;;5057135;28;20466;-68
2022/10/21 11:29:44;;;;;;;1999.90;999.90;;;19.60;99.90;;;;;;5052065;28;20497;-69
2022/10/21 11:32:21;;;;;;;1999.90;999.90;;;19.60;99.90;;;;;;5053092;28;20452;-68
2022/10/21 11:35:05;;;;;;;1999.90;999.90;;;19.60;99.90;;;;;;5051382;28;20989;-69
2022/10/21 11:37:45;;;;;;;1999.90;999.90;;;19.70;99.90;;;;;;5052355;28;20470;-69
2022/10/21 11:40:21;;;;;;;1999.90;999.90;;;19.60;99.90;;;;;;5055670;28;20461;-70
2022/10/21 11:42:51;;;;;;;1999.90;999.90;;;19.50;99.90;;;;;;5054234;28;20462;-68
2022/10/21 11:45:43;;;;;;;1999.90;999.90;;;19.60;99.90;;;;;;5055014;28;20462;-68
2022/10/21 11:48:24;;;;;;;1999.90;999.90;;;19.60;99.90;;;;;;5054391;28;20484;-68
2022/10/21 11:51:03;;;;;;;1999.90;999.90;;;19.60;99.90;;;;;;5053245;28;20455;-68
2022/10/21 11:53:48;;;;;;;1999.90;999.90;;;19.50;99.90;;;;;;5058004;28;20844;-68
2022/10/21 11:56:26;;;;;;;1999.90;999.90;;;19.20;99.90;;;;;;5053901;28;20872;-68
2022/10/21 11:59:07;;;;;;;1999.90;999.90;;;19.10;99.90;;;;;;5050724;28;20490;-68
2022/10/21 12:01:45;;;;;;;1999.90;999.90;;;19.10;99.90;;;;;;5053785;28;20449;-69
2022/10/21 12:04:38;;;;;;;1999.90;999.90;;;19.10;99.90;;;;;;5053592;28;20942;-68
2022/10/21 12:07:23;;;;;;;1999.90;999.90;;;19.10;99.90;;;;;;5050886;28;20442;-68
2022/10/21 12:09:54;;;;;;;1999.90;999.90;;;18.90;99.90;;;;;;5052441;28;20962;-68
2022/10/21 12:12:27;;;;;;;1999.90;999.90;;;18.90;99.90;;;;;;5034164;28;20447;-69
2022/10/21 12:14:57;;;;;;;1999.90;999.90;;;18.90;99.90;;;;;;5033413;28;20504;-69